sensor_id;sensor_type;location;lat;lon;timestamp;P1;durP1;ratioP1;P2;durP2;ratioP2
3843;SDS011;1937;51.444;6.484;2022-07-12T00:00:27;2.53;;;2.33;;
3843;SDS011;1937;51.444;6.484;2022-07-12T00:02:56;2.70;;;2.27;;
3843;SDS011;1937;51.444;6.484;2022-07-12T00:05:25;3.40;;;3.03;;
3843;SDS011;1937;51.444;6.484;2022-07-12T00:07:54;4.60;;;2.67;;
3843;SDS011;1937;51.444;6.484;2022-07-12T00:10:20;2.80;;;2.27;;
3843;SDS011;1937;51.444;6.484;2022-07-12T00:12:49;2.53;;;2.17;;
3843;SDS011;1937;51.444;6.484;2022-07-12T00:15:19;3.83;;;2.60;;
3843;SDS011;1937;51.444;6.484;2022-07-12T00:17:47;2.53;;;2.33;;
3843;SDS011;1937;51.444;6.484;2022-07-12T00:20:16;2.57;;;2.37;;
3843;SDS011;1937;51.444;6.484;2022-07-12T00:22:46;2.33;;;2.13;;
3843;SDS011;1937;51.444;6.484;2022-07-12T00:25:14;2.30;;;1.90;;
3843;SDS011;1937;51.444;6.484;2022-07-12T00:27:43;3.53;;;2.23;;
3843;SDS011;1937;51.444;6.484;2022-07-12T00:30:11;5.40;;;2.33;;
3843;SDS011;1937;51.444;6.484;2022-07-12T00:32:39;2.47;;;2.27;;
3843;SDS011;1937;51.444;6.484;2022-07-12T00:35:09;3.37;;;2.83;;
3843;SDS011;1937;51.444;6.484;2022-07-12T00:37:38;2.63;;;2.37;;
3843;SDS011;1937;51.444;6.484;2022-07-12T00:40:09;2.60;;;2.00;;
3843;SDS011;1937;51.444;6.484;2022-07-12T00:42:38;2.17;;;1.97;;
3843;SDS011;1937;51.444;6.484;2022-07-12T00:45:07;2.03;;;1.90;;
3843;SDS011;1937;51.444;6.484;2022-07-12T00:47:37;2.57;;;2.23;;
3843;SDS011;1937;51.444;6.484;2022-07-12T00:50:10;2.23;;;2.03;;
3843;SDS011;1937;51.444;6.484;2022-07-12T00:52:41;4.63;;;2.13;;
3843;SDS011;1937;51.444;6.484;2022-07-12T00:55:12;1.70;;;1.60;;
3843;SDS011;1937;51.444;6.484;2022-07-12T00:57:42;1.73;;;1.63;;
3843;SDS011;1937;51.444;6.484;2022-07-12T01:00:13;2.33;;;1.83;;
3843;SDS011;1937;51.444;6.484;2022-07-12T01:02:43;2.37;;;2.17;;
3843;SDS011;1937;51.444;6.484;2022-07-12T01:05:12;2.43;;;2.23;;
3843;SDS011;1937;51.444;6.484;2022-07-12T01:07:41;1.90;;;1.70;;
3843;SDS011;1937;51.444;6.484;2022-07-12T01:10:10;2.33;;;2.10;;
3843;SDS011;1937;51.444;6.484;2022-07-12T01:12:40;1.67;;;1.57;;
3843;SDS011;1937;51.444;6.484;2022-07-12T01:15:09;1.73;;;1.63;;
3843;SDS011;1937;51.444;6.484;2022-07-12T01:17:37;1.40;;;1.30;;
3843;SDS011;1937;51.444;6.484;2022-07-12T01:20:07;2.03;;;1.40;;
3843;SDS011;1937;51.444;6.484;2022-07-12T01:22:39;1.47;;;1.37;;
3843;SDS011;1937;51.444;6.484;2022-07-12T01:25:10;2.27;;;1.90;;
3843;SDS011;1937;51.444;6.484;2022-07-12T01:27:39;1.50;;;1.40;;
3843;SDS011;1937;51.444;6.484;2022-07-12T01:30:07;2.43;;;2.00;;
3843;SDS011;1937;51.444;6.484;2022-07-12T01:32:37;1.77;;;1.67;;
3843;SDS011;1937;51.444;6.484;2022-07-12T01:35:07;2.03;;;1.50;;
3843;SDS011;1937;51.444;6.484;2022-07-12T01:37:36;3.63;;;1.80;;
3843;SDS011;1937;51.444;6.484;2022-07-12T01:40:07;2.43;;;1.80;;
3843;SDS011;1937;51.444;6.484;2022-07-12T01:42:39;1.90;;;1.70;;
3843;SDS011;1937;51.444;6.484;2022-07-12T01:45:09;4.10;;;2.20;;
3843;SDS011;1937;51.444;6.484;2022-07-12T01:47:38;2.50;;;1.97;;
3843;SDS011;1937;51.444;6.484;2022-07-12T01:50:08;2.40;;;2.20;;
3843;SDS011;1937;51.444;6.484;2022-07-12T01:52:39;2.60;;;2.40;;
3843;SDS011;1937;51.444;6.484;2022-07-12T01:55:09;2.63;;;2.40;;
3843;SDS011;1937;51.444;6.484;2022-07-12T01:57:40;3.33;;;2.40;;
3843;SDS011;1937;51.444;6.484;2022-07-12T02:00:11;3.73;;;2.33;;
3843;SDS011;1937;51.444;6.484;2022-07-12T02:02:43;2.17;;;1.80;;
3843;SDS011;1937;51.444;6.484;2022-07-12T02:05:12;2.10;;;2.00;;
3843;SDS011;1937;51.444;6.484;2022-07-12T02:07:41;2.83;;;2.63;;
3843;SDS011;1937;51.444;6.484;2022-07-12T02:10:10;2.57;;;2.30;;
3843;SDS011;1937;51.444;6.484;2022-07-12T02:12:41;2.40;;;2.20;;
3843;SDS011;1937;51.444;6.484;2022-07-12T02:15:09;4.33;;;2.50;;
3843;SDS011;1937;51.444;6.484;2022-07-12T02:17:38;2.13;;;1.97;;
3843;SDS011;1937;51.444;6.484;2022-07-12T02:20:09;2.50;;;2.30;;
3843;SDS011;1937;51.444;6.484;2022-07-12T02:22:38;3.10;;;2.30;;
3843;SDS011;1937;51.444;6.484;2022-07-12T02:25:07;2.50;;;2.30;;
3843;SDS011;1937;51.444;6.484;2022-07-12T02:27:37;2.70;;;2.50;;
3843;SDS011;1937;51.444;6.484;2022-07-12T02:30:08;3.60;;;2.90;;
3843;SDS011;1937;51.444;6.484;2022-07-12T02:32:38;3.20;;;2.50;;
3843;SDS011;1937;51.444;6.484;2022-07-12T02:35:07;6.90;;;3.00;;
3843;SDS011;1937;51.444;6.484;2022-07-12T02:37:35;4.00;;;3.03;;
3843;SDS011;1937;51.444;6.484;2022-07-12T02:40:04;3.23;;;2.70;;
3843;SDS011;1937;51.444;6.484;2022-07-12T02:42:51;3.53;;;2.47;;
3843;SDS011;1937;51.444;6.484;2022-07-12T02:45:21;3.77;;;3.37;;
3843;SDS011;1937;51.444;6.484;2022-07-12T02:47:49;3.07;;;2.77;;
3843;SDS011;1937;51.444;6.484;2022-07-12T02:50:18;3.27;;;2.97;;
3843;SDS011;1937;51.444;6.484;2022-07-12T02:52:46;3.27;;;2.90;;
3843;SDS011;1937;51.444;6.484;2022-07-12T02:55:14;3.80;;;3.20;;
3843;SDS011;1937;51.444;6.484;2022-07-12T02:57:43;5.90;;;2.90;;
3843;SDS011;1937;51.444;6.484;2022-07-12T03:00:11;3.33;;;2.83;;
3843;SDS011;1937;51.444;6.484;2022-07-12T03:02:42;4.43;;;2.77;;
3843;SDS011;1937;51.444;6.484;2022-07-12T03:05:10;2.60;;;2.40;;
3843;SDS011;1937;51.444;6.484;2022-07-12T03:07:39;3.50;;;2.87;;
3843;SDS011;1937;51.444;6.484;2022-07-12T03:10:07;2.60;;;2.40;;
3843;SDS011;1937;51.444;6.484;2022-07-12T03:12:36;2.67;;;2.47;;
3843;SDS011;1937;51.444;6.484;2022-07-12T03:15:05;4.07;;;2.60;;
3843;SDS011;1937;51.444;6.484;2022-07-12T03:17:35;3.13;;;2.93;;
3843;SDS011;1937;51.444;6.484;2022-07-12T03:20:05;3.40;;;2.70;;
3843;SDS011;1937;51.444;6.484;2022-07-12T03:22:36;9.83;;;3.07;;
3843;SDS011;1937;51.444;6.484;2022-07-12T03:25:06;4.00;;;3.30;;
3843;SDS011;1937;51.444;6.484;2022-07-12T03:27:35;2.50;;;2.30;;
3843;SDS011;1937;51.444;6.484;2022-07-12T03:30:04;2.97;;;2.53;;
3843;SDS011;1937;51.444;6.484;2022-07-12T03:32:34;3.20;;;2.80;;
3843;SDS011;1937;51.444;6.484;2022-07-12T03:35:06;5.20;;;3.40;;
3843;SDS011;1937;51.444;6.484;2022-07-12T03:37:42;4.33;;;3.30;;
3843;SDS011;1937;51.444;6.484;2022-07-12T03:40:14;3.30;;;3.10;;
3843;SDS011;1937;51.444;6.484;2022-07-12T03:42:43;4.30;;;3.23;;
3843;SDS011;1937;51.444;6.484;2022-07-12T03:45:13;3.07;;;2.77;;
3843;SDS011;1937;51.444;6.484;2022-07-12T03:47:41;3.80;;;3.20;;
3843;SDS011;1937;51.444;6.484;2022-07-12T03:50:13;3.63;;;2.87;;
3843;SDS011;1937;51.444;6.484;2022-07-12T03:52:42;2.97;;;2.60;;
3843;SDS011;1937;51.444;6.484;2022-07-12T03:55:11;3.00;;;2.70;;
3843;SDS011;1937;51.444;6.484;2022-07-12T03:57:40;3.80;;;2.50;;
3843;SDS011;1937;51.444;6.484;2022-07-12T04:00:10;1.80;;;1.70;;
3843;SDS011;1937;51.444;6.484;2022-07-12T04:02:39;1.50;;;1.40;;
3843;SDS011;1937;51.444;6.484;2022-07-12T04:05:09;2.00;;;1.90;;
3843;SDS011;1937;51.444;6.484;2022-07-12T04:07:39;1.67;;;1.57;;
3843;SDS011;1937;51.444;6.484;2022-07-12T04:10:08;1.67;;;1.57;;
3843;SDS011;1937;51.444;6.484;2022-07-12T04:12:37;1.70;;;1.60;;
3843;SDS011;1937;51.444;6.484;2022-07-12T04:15:06;2.37;;;1.90;;
3843;SDS011;1937;51.444;6.484;2022-07-12T04:17:35;2.53;;;2.20;;
3843;SDS011;1937;51.444;6.484;2022-07-12T04:20:04;2.77;;;2.17;;
3843;SDS011;1937;51.444;6.484;2022-07-12T04:22:35;2.20;;;2.00;;
3843;SDS011;1937;51.444;6.484;2022-07-12T04:25:06;2.20;;;2.00;;
3843;SDS011;1937;51.444;6.484;2022-07-12T04:27:37;4.20;;;1.97;;
3843;SDS011;1937;51.444;6.484;2022-07-12T04:30:05;2.50;;;2.03;;
3843;SDS011;1937;51.444;6.484;2022-07-12T04:32:35;2.93;;;2.00;;
3843;SDS011;1937;51.444;6.484;2022-07-12T04:35:04;1.93;;;1.83;;
3843;SDS011;1937;51.444;6.484;2022-07-12T04:37:34;2.30;;;2.10;;
3843;SDS011;1937;51.444;6.484;2022-07-12T04:40:02;2.63;;;2.07;;
3843;SDS011;1937;51.444;6.484;2022-07-12T04:42:33;3.83;;;2.37;;
3843;SDS011;1937;51.444;6.484;2022-07-12T04:45:02;2.43;;;2.23;;
3843;SDS011;1937;51.444;6.484;2022-07-12T04:47:34;3.03;;;2.53;;
3843;SDS011;1937;51.444;6.484;2022-07-12T04:50:03;2.50;;;2.30;;
3843;SDS011;1937;51.444;6.484;2022-07-12T04:52:31;2.80;;;2.60;;
3843;SDS011;1937;51.444;6.484;2022-07-12T04:55:00;5.57;;;2.10;;
3843;SDS011;1937;51.444;6.484;2022-07-12T04:57:29;2.70;;;2.50;;
3843;SDS011;1937;51.444;6.484;2022-07-12T04:59:59;3.20;;;2.90;;
3843;SDS011;1937;51.444;6.484;2022-07-12T05:02:29;6.77;;;4.20;;
3843;SDS011;1937;51.444;6.484;2022-07-12T05:04:58;4.43;;;4.03;;
3843;SDS011;1937;51.444;6.484;2022-07-12T05:07:26;3.40;;;3.10;;
3843;SDS011;1937;51.444;6.484;2022-07-12T05:09:56;3.97;;;3.20;;
3843;SDS011;1937;51.444;6.484;2022-07-12T05:12:25;3.70;;;3.40;;
3843;SDS011;1937;51.444;6.484;2022-07-12T05:14:54;7.30;;;4.30;;
3843;SDS011;1937;51.444;6.484;2022-07-12T05:17:24;6.23;;;4.30;;
3843;SDS011;1937;51.444;6.484;2022-07-12T05:19:53;5.57;;;4.27;;
3843;SDS011;1937;51.444;6.484;2022-07-12T05:22:21;7.40;;;4.73;;
3843;SDS011;1937;51.444;6.484;2022-07-12T05:24:49;5.73;;;5.20;;
3843;SDS011;1937;51.444;6.484;2022-07-12T05:27:18;7.57;;;5.47;;
3843;SDS011;1937;51.444;6.484;2022-07-12T05:29:46;6.67;;;6.03;;
3843;SDS011;1937;51.444;6.484;2022-07-12T05:32:14;14.00;;;7.20;;
3843;SDS011;1937;51.444;6.484;2022-07-12T05:34:44;11.17;;;7.30;;
3843;SDS011;1937;51.444;6.484;2022-07-12T05:37:12;12.23;;;7.90;;
3843;SDS011;1937;51.444;6.484;2022-07-12T05:39:42;11.43;;;7.80;;
3843;SDS011;1937;51.444;6.484;2022-07-12T05:42:11;15.30;;;8.53;;
3843;SDS011;1937;51.444;6.484;2022-07-12T05:44:39;10.43;;;9.00;;
3843;SDS011;1937;51.444;6.484;2022-07-12T05:47:07;10.30;;;7.53;;
3843;SDS011;1937;51.444;6.484;2022-07-12T05:49:36;11.27;;;7.93;;
3843;SDS011;1937;51.444;6.484;2022-07-12T05:52:07;11.20;;;8.67;;
3843;SDS011;1937;51.444;6.484;2022-07-12T05:54:53;12.13;;;8.50;;
3843;SDS011;1937;51.444;6.484;2022-07-12T05:57:22;10.90;;;8.50;;
3843;SDS011;1937;51.444;6.484;2022-07-12T05:59:50;12.00;;;9.30;;
3843;SDS011;1937;51.444;6.484;2022-07-12T06:02:18;14.90;;;8.97;;
3843;SDS011;1937;51.444;6.484;2022-07-12T06:04:47;11.13;;;7.50;;
3843;SDS011;1937;51.444;6.484;2022-07-12T06:07:17;13.07;;;8.90;;
3843;SDS011;1937;51.444;6.484;2022-07-12T06:09:45;11.13;;;7.63;;
3843;SDS011;1937;51.444;6.484;2022-07-12T06:12:14;10.10;;;8.27;;
3843;SDS011;1937;51.444;6.484;2022-07-12T06:14:42;12.10;;;9.00;;
3843;SDS011;1937;51.444;6.484;2022-07-12T06:17:10;9.60;;;7.63;;
3843;SDS011;1937;51.444;6.484;2022-07-12T06:19:39;10.60;;;6.90;;
3843;SDS011;1937;51.444;6.484;2022-07-12T06:22:07;9.47;;;6.53;;
3843;SDS011;1937;51.444;6.484;2022-07-12T06:24:36;8.57;;;6.60;;
3843;SDS011;1937;51.444;6.484;2022-07-12T06:27:05;10.60;;;7.73;;
3843;SDS011;1937;51.444;6.484;2022-07-12T06:29:33;8.97;;;5.67;;
3843;SDS011;1937;51.444;6.484;2022-07-12T06:32:01;8.23;;;6.00;;
3843;SDS011;1937;51.444;6.484;2022-07-12T06:34:31;7.53;;;6.30;;
3843;SDS011;1937;51.444;6.484;2022-07-12T06:37:02;9.20;;;6.00;;
3843;SDS011;1937;51.444;6.484;2022-07-12T06:39:33;7.90;;;6.17;;
3843;SDS011;1937;51.444;6.484;2022-07-12T06:42:04;5.90;;;5.20;;
3843;SDS011;1937;51.444;6.484;2022-07-12T06:44:33;7.90;;;6.67;;
3843;SDS011;1937;51.444;6.484;2022-07-12T06:47:02;5.50;;;5.00;;
3843;SDS011;1937;51.444;6.484;2022-07-12T06:49:32;7.60;;;5.57;;
3843;SDS011;1937;51.444;6.484;2022-07-12T06:52:00;5.90;;;5.30;;
3843;SDS011;1937;51.444;6.484;2022-07-12T06:54:29;6.83;;;5.00;;
3843;SDS011;1937;51.444;6.484;2022-07-12T06:56:57;7.57;;;5.67;;
3843;SDS011;1937;51.444;6.484;2022-07-12T06:59:27;7.10;;;5.90;;
3843;SDS011;1937;51.444;6.484;2022-07-12T07:01:55;7.63;;;5.30;;
3843;SDS011;1937;51.444;6.484;2022-07-12T07:04:24;5.50;;;5.00;;
3843;SDS011;1937;51.444;6.484;2022-07-12T07:06:53;6.47;;;5.00;;
3843;SDS011;1937;51.444;6.484;2022-07-12T07:09:21;7.47;;;4.73;;
3843;SDS011;1937;51.444;6.484;2022-07-12T07:11:53;6.23;;;5.07;;
3843;SDS011;1937;51.444;6.484;2022-07-12T07:14:21;5.77;;;4.20;;
3843;SDS011;1937;51.444;6.484;2022-07-12T07:16:51;5.90;;;4.53;;
3843;SDS011;1937;51.444;6.484;2022-07-12T07:19:20;8.10;;;5.07;;
3843;SDS011;1937;51.444;6.484;2022-07-12T07:21:49;4.70;;;4.17;;
3843;SDS011;1937;51.444;6.484;2022-07-12T07:24:19;5.93;;;5.03;;
3843;SDS011;1937;51.444;6.484;2022-07-12T07:26:47;5.77;;;5.23;;
3843;SDS011;1937;51.444;6.484;2022-07-12T07:29:16;5.57;;;4.30;;
3843;SDS011;1937;51.444;6.484;2022-07-12T07:32:04;5.30;;;4.80;;
3843;SDS011;1937;51.444;6.484;2022-07-12T07:34:34;6.03;;;5.43;;
3843;SDS011;1937;51.444;6.484;2022-07-12T07:37:02;7.20;;;5.60;;
3843;SDS011;1937;51.444;6.484;2022-07-12T07:39:31;6.30;;;4.73;;
3843;SDS011;1937;51.444;6.484;2022-07-12T07:42:00;5.70;;;5.20;;
3843;SDS011;1937;51.444;6.484;2022-07-12T07:44:29;5.17;;;4.60;;
3843;SDS011;1937;51.444;6.484;2022-07-12T07:46:59;6.10;;;5.50;;
3843;SDS011;1937;51.444;6.484;2022-07-12T07:49:29;8.20;;;6.03;;
3843;SDS011;1937;51.444;6.484;2022-07-12T07:51:58;8.23;;;6.33;;
3843;SDS011;1937;51.444;6.484;2022-07-12T07:54:27;7.40;;;6.30;;
3843;SDS011;1937;51.444;6.484;2022-07-12T07:56:55;5.50;;;4.70;;
3843;SDS011;1937;51.444;6.484;2022-07-12T07:59:23;5.93;;;4.80;;
3843;SDS011;1937;51.444;6.484;2022-07-12T08:01:51;6.37;;;5.63;;
3843;SDS011;1937;51.444;6.484;2022-07-12T08:04:22;15.13;;;6.23;;
3843;SDS011;1937;51.444;6.484;2022-07-12T08:06:51;6.00;;;5.17;;
3843;SDS011;1937;51.444;6.484;2022-07-12T08:09:21;6.27;;;4.90;;
3843;SDS011;1937;51.444;6.484;2022-07-12T08:11:50;5.50;;;4.50;;
3843;SDS011;1937;51.444;6.484;2022-07-12T08:14:18;6.67;;;6.07;;
3843;SDS011;1937;51.444;6.484;2022-07-12T08:16:47;5.70;;;5.20;;
3843;SDS011;1937;51.444;6.484;2022-07-12T08:19:15;6.10;;;5.07;;
3843;SDS011;1937;51.444;6.484;2022-07-12T08:21:43;4.90;;;4.40;;
3843;SDS011;1937;51.444;6.484;2022-07-12T08:24:14;5.43;;;4.93;;
3843;SDS011;1937;51.444;6.484;2022-07-12T08:26:42;4.17;;;3.43;;
3843;SDS011;1937;51.444;6.484;2022-07-12T08:29:10;4.70;;;4.20;;
3843;SDS011;1937;51.444;6.484;2022-07-12T08:31:39;5.13;;;4.30;;
3843;SDS011;1937;51.444;6.484;2022-07-12T08:34:07;4.63;;;4.00;;
3843;SDS011;1937;51.444;6.484;2022-07-12T08:36:35;5.50;;;4.17;;
3843;SDS011;1937;51.444;6.484;2022-07-12T08:39:04;6.90;;;3.87;;
3843;SDS011;1937;51.444;6.484;2022-07-12T08:41:34;4.17;;;3.50;;
3843;SDS011;1937;51.444;6.484;2022-07-12T08:44:02;4.17;;;3.20;;
3843;SDS011;1937;51.444;6.484;2022-07-12T08:46:31;3.20;;;2.67;;
3843;SDS011;1937;51.444;6.484;2022-07-12T08:49:04;3.17;;;2.87;;
3843;SDS011;1937;51.444;6.484;2022-07-12T08:51:34;2.17;;;2.07;;
3843;SDS011;1937;51.444;6.484;2022-07-12T08:54:06;2.70;;;2.23;;
3843;SDS011;1937;51.444;6.484;2022-07-12T08:56:39;2.37;;;2.17;;
3843;SDS011;1937;51.444;6.484;2022-07-12T08:59:12;2.90;;;2.60;;
3843;SDS011;1937;51.444;6.484;2022-07-12T09:01:43;3.37;;;3.07;;
3843;SDS011;1937;51.444;6.484;2022-07-12T09:04:15;2.60;;;2.40;;
3843;SDS011;1937;51.444;6.484;2022-07-12T09:06:44;3.73;;;3.20;;
3843;SDS011;1937;51.444;6.484;2022-07-12T09:09:25;2.80;;;2.50;;
3843;SDS011;1937;51.444;6.484;2022-07-12T09:11:56;3.83;;;2.27;;
3843;SDS011;1937;51.444;6.484;2022-07-12T09:14:26;3.37;;;3.07;;
3843;SDS011;1937;51.444;6.484;2022-07-12T09:17:00;3.07;;;2.60;;
3843;SDS011;1937;51.444;6.484;2022-07-12T09:19:28;4.80;;;3.03;;
3843;SDS011;1937;51.444;6.484;2022-07-12T09:21:58;3.23;;;2.60;;
3843;SDS011;1937;51.444;6.484;2022-07-12T09:24:27;4.57;;;3.13;;
3843;SDS011;1937;51.444;6.484;2022-07-12T09:27:00;2.10;;;1.90;;
3843;SDS011;1937;51.444;6.484;2022-07-12T09:29:29;2.47;;;2.20;;
3843;SDS011;1937;51.444;6.484;2022-07-12T09:32:05;3.47;;;2.40;;
3843;SDS011;1937;51.444;6.484;2022-07-12T09:34:55;3.90;;;2.50;;
3843;SDS011;1937;51.444;6.484;2022-07-12T09:37:42;2.80;;;2.47;;
3843;SDS011;1937;51.444;6.484;2022-07-12T09:40:11;3.70;;;3.40;;
3843;SDS011;1937;51.444;6.484;2022-07-12T09:42:42;3.17;;;2.87;;
3843;SDS011;1937;51.444;6.484;2022-07-12T09:45:11;4.10;;;2.93;;
3843;SDS011;1937;51.444;6.484;2022-07-12T09:47:41;2.87;;;2.67;;
3843;SDS011;1937;51.444;6.484;2022-07-12T09:50:13;4.07;;;3.10;;
3843;SDS011;1937;51.444;6.484;2022-07-12T09:52:42;2.80;;;2.60;;
3843;SDS011;1937;51.444;6.484;2022-07-12T09:55:14;3.53;;;3.17;;
3843;SDS011;1937;51.444;6.484;2022-07-12T09:57:46;4.20;;;3.90;;
3843;SDS011;1937;51.444;6.484;2022-07-12T10:00:21;3.63;;;3.23;;
3843;SDS011;1937;51.444;6.484;2022-07-12T10:02:50;3.93;;;3.40;;
3843;SDS011;1937;51.444;6.484;2022-07-12T10:05:24;4.37;;;3.97;;
3843;SDS011;1937;51.444;6.484;2022-07-12T10:07:54;3.70;;;3.40;;
3843;SDS011;1937;51.444;6.484;2022-07-12T10:10:23;4.10;;;3.53;;
3843;SDS011;1937;51.444;6.484;2022-07-12T10:12:55;3.73;;;3.30;;
3843;SDS011;1937;51.444;6.484;2022-07-12T10:15:25;3.90;;;3.30;;
3843;SDS011;1937;51.444;6.484;2022-07-12T10:17:56;3.90;;;3.13;;
3843;SDS011;1937;51.444;6.484;2022-07-12T10:20:28;4.03;;;3.40;;
3843;SDS011;1937;51.444;6.484;2022-07-12T10:23:28;2.90;;;2.70;;
3843;SDS011;1937;51.444;6.484;2022-07-12T10:25:59;3.80;;;2.90;;
3843;SDS011;1937;51.444;6.484;2022-07-12T10:31:32;3.37;;;3.07;;
3843;SDS011;1937;51.444;6.484;2022-07-12T10:34:09;4.27;;;3.63;;
3843;SDS011;1937;51.444;6.484;2022-07-12T10:39:33;3.77;;;3.37;;
3843;SDS011;1937;51.444;6.484;2022-07-12T10:42:15;2.70;;;2.50;;
3843;SDS011;1937;51.444;6.484;2022-07-12T10:44:46;2.57;;;2.37;;
3843;SDS011;1937;51.444;6.484;2022-07-12T10:47:15;4.90;;;2.80;;
3843;SDS011;1937;51.444;6.484;2022-07-12T10:49:46;2.43;;;2.20;;
3843;SDS011;1937;51.444;6.484;2022-07-12T10:52:22;3.30;;;3.00;;
3843;SDS011;1937;51.444;6.484;2022-07-12T10:57:47;2.80;;;2.47;;
3843;SDS011;1937;51.444;6.484;2022-07-12T11:00:18;3.27;;;2.90;;
3843;SDS011;1937;51.444;6.484;2022-07-12T11:02:48;3.60;;;3.30;;
3843;SDS011;1937;51.444;6.484;2022-07-12T11:05:24;4.50;;;3.07;;
3843;SDS011;1937;51.444;6.484;2022-07-12T11:07:54;2.30;;;2.10;;
3843;SDS011;1937;51.444;6.484;2022-07-12T11:10:23;3.33;;;2.90;;
3843;SDS011;1937;51.444;6.484;2022-07-12T11:12:51;3.00;;;2.73;;
3843;SDS011;1937;51.444;6.484;2022-07-12T11:15:22;4.43;;;3.00;;
3843;SDS011;1937;51.444;6.484;2022-07-12T11:17:50;4.20;;;3.80;;
3843;SDS011;1937;51.444;6.484;2022-07-12T11:20:19;4.30;;;3.57;;
3843;SDS011;1937;51.444;6.484;2022-07-12T11:22:47;3.87;;;3.57;;
3843;SDS011;1937;51.444;6.484;2022-07-12T11:25:18;3.80;;;3.50;;
3843;SDS011;1937;51.444;6.484;2022-07-12T11:27:47;3.77;;;2.90;;
3843;SDS011;1937;51.444;6.484;2022-07-12T11:30:16;5.80;;;3.30;;
3843;SDS011;1937;51.444;6.484;2022-07-12T11:32:46;4.53;;;3.27;;
3843;SDS011;1937;51.444;6.484;2022-07-12T11:35:19;3.40;;;3.10;;
3843;SDS011;1937;51.444;6.484;2022-07-12T11:37:51;4.13;;;3.53;;
3843;SDS011;1937;51.444;6.484;2022-07-12T11:40:21;3.87;;;3.57;;
3843;SDS011;1937;51.444;6.484;2022-07-12T11:42:52;3.83;;;2.77;;
3843;SDS011;1937;51.444;6.484;2022-07-12T11:45:19;3.30;;;3.00;;
3843;SDS011;1937;51.444;6.484;2022-07-12T11:47:49;5.50;;;3.20;;
3843;SDS011;1937;51.444;6.484;2022-07-12T11:50:18;3.30;;;3.00;;
3843;SDS011;1937;51.444;6.484;2022-07-12T11:52:46;3.80;;;2.97;;
3843;SDS011;1937;51.444;6.484;2022-07-12T11:55:18;2.40;;;2.07;;
3843;SDS011;1937;51.444;6.484;2022-07-12T11:57:51;4.70;;;2.63;;
3843;SDS011;1937;51.444;6.484;2022-07-12T12:00:29;2.80;;;2.60;;
3843;SDS011;1937;51.444;6.484;2022-07-12T12:02:59;2.83;;;2.63;;
3843;SDS011;1937;51.444;6.484;2022-07-12T12:05:28;2.87;;;2.50;;
3843;SDS011;1937;51.444;6.484;2022-07-12T12:07:58;3.33;;;2.57;;
3843;SDS011;1937;51.444;6.484;2022-07-12T12:10:27;4.00;;;2.70;;
3843;SDS011;1937;51.444;6.484;2022-07-12T12:12:57;2.73;;;2.53;;
3843;SDS011;1937;51.444;6.484;2022-07-12T12:15:27;3.67;;;2.73;;
3843;SDS011;1937;51.444;6.484;2022-07-12T12:17:58;6.43;;;2.23;;
3843;SDS011;1937;51.444;6.484;2022-07-12T12:20:27;2.93;;;2.63;;
3843;SDS011;1937;51.444;6.484;2022-07-12T12:22:56;3.50;;;2.40;;
3843;SDS011;1937;51.444;6.484;2022-07-12T12:25:27;3.00;;;2.80;;
3843;SDS011;1937;51.444;6.484;2022-07-12T12:27:57;3.20;;;2.90;;
3843;SDS011;1937;51.444;6.484;2022-07-12T12:30:25;5.90;;;3.00;;
3843;SDS011;1937;51.444;6.484;2022-07-12T12:32:55;2.60;;;2.40;;
3843;SDS011;1937;51.444;6.484;2022-07-12T12:35:31;3.03;;;2.73;;
3843;SDS011;1937;51.444;6.484;2022-07-12T12:38:01;2.60;;;2.33;;
3843;SDS011;1937;51.444;6.484;2022-07-12T12:40:37;3.00;;;2.47;;
3843;SDS011;1937;51.444;6.484;2022-07-12T12:43:08;2.60;;;2.07;;
3843;SDS011;1937;51.444;6.484;2022-07-12T12:45:48;3.97;;;2.30;;
3843;SDS011;1937;51.444;6.484;2022-07-12T12:48:17;2.43;;;2.23;;
3843;SDS011;1937;51.444;6.484;2022-07-12T12:50:49;2.60;;;2.33;;
3843;SDS011;1937;51.444;6.484;2022-07-12T12:53:19;2.63;;;2.43;;
3843;SDS011;1937;51.444;6.484;2022-07-12T12:55:50;2.87;;;2.40;;
3843;SDS011;1937;51.444;6.484;2022-07-12T12:58:21;4.30;;;2.80;;
3843;SDS011;1937;51.444;6.484;2022-07-12T13:00:52;2.40;;;2.20;;
3843;SDS011;1937;51.444;6.484;2022-07-12T13:03:22;2.30;;;2.07;;
3843;SDS011;1937;51.444;6.484;2022-07-12T13:05:52;2.40;;;2.00;;
3843;SDS011;1937;51.444;6.484;2022-07-12T13:08:22;2.90;;;2.70;;
3843;SDS011;1937;51.444;6.484;2022-07-12T13:10:52;2.20;;;1.90;;
3843;SDS011;1937;51.444;6.484;2022-07-12T13:13:36;2.00;;;1.90;;
3843;SDS011;1937;51.444;6.484;2022-07-12T13:16:06;2.60;;;2.40;;
3843;SDS011;1937;51.444;6.484;2022-07-12T13:18:34;2.63;;;2.43;;
3843;SDS011;1937;51.444;6.484;2022-07-12T13:21:04;2.20;;;2.00;;
3843;SDS011;1937;51.444;6.484;2022-07-12T13:23:32;2.13;;;1.93;;
3843;SDS011;1937;51.444;6.484;2022-07-12T13:26:01;2.63;;;2.43;;
3843;SDS011;1937;51.444;6.484;2022-07-12T13:28:29;2.50;;;2.30;;
3843;SDS011;1937;51.444;6.484;2022-07-12T13:30:58;2.43;;;2.10;;
3843;SDS011;1937;51.444;6.484;2022-07-12T13:33:27;2.70;;;2.50;;
3843;SDS011;1937;51.444;6.484;2022-07-12T13:35:56;5.03;;;2.90;;
3843;SDS011;1937;51.444;6.484;2022-07-12T13:38:26;3.67;;;2.73;;
3843;SDS011;1937;51.444;6.484;2022-07-12T13:40:55;3.50;;;3.17;;
3843;SDS011;1937;51.444;6.484;2022-07-12T13:43:23;2.77;;;2.57;;
3843;SDS011;1937;51.444;6.484;2022-07-12T13:45:51;2.70;;;2.50;;
3843;SDS011;1937;51.444;6.484;2022-07-12T13:48:20;2.60;;;2.40;;
3843;SDS011;1937;51.444;6.484;2022-07-12T13:50:48;3.13;;;2.40;;
3843;SDS011;1937;51.444;6.484;2022-07-12T13:53:18;2.80;;;2.60;;
3843;SDS011;1937;51.444;6.484;2022-07-12T13:55:47;3.30;;;2.43;;
3843;SDS011;1937;51.444;6.484;2022-07-12T13:58:16;2.33;;;2.13;;
3843;SDS011;1937;51.444;6.484;2022-07-12T14:00:44;2.50;;;2.30;;
3843;SDS011;1937;51.444;6.484;2022-07-12T14:03:12;2.70;;;2.50;;
3843;SDS011;1937;51.444;6.484;2022-07-12T14:05:41;2.50;;;2.30;;
3843;SDS011;1937;51.444;6.484;2022-07-12T14:08:11;2.50;;;2.30;;
3843;SDS011;1937;51.444;6.484;2022-07-12T14:10:40;3.93;;;2.60;;
3843;SDS011;1937;51.444;6.484;2022-07-12T14:13:10;3.83;;;2.93;;
3843;SDS011;1937;51.444;6.484;2022-07-12T14:15:38;2.80;;;2.23;;
3843;SDS011;1937;51.444;6.484;2022-07-12T14:18:07;2.73;;;2.00;;
3843;SDS011;1937;51.444;6.484;2022-07-12T14:20:37;2.50;;;2.30;;
3843;SDS011;1937;51.444;6.484;2022-07-12T14:23:05;2.53;;;2.20;;
3843;SDS011;1937;51.444;6.484;2022-07-12T14:25:35;2.10;;;2.00;;
3843;SDS011;1937;51.444;6.484;2022-07-12T14:28:05;2.30;;;2.10;;
3843;SDS011;1937;51.444;6.484;2022-07-12T14:30:35;3.63;;;2.37;;
3843;SDS011;1937;51.444;6.484;2022-07-12T14:33:04;1.90;;;1.80;;
3843;SDS011;1937;51.444;6.484;2022-07-12T14:35:35;3.23;;;2.17;;
3843;SDS011;1937;51.444;6.484;2022-07-12T14:38:03;1.77;;;1.67;;
3843;SDS011;1937;51.444;6.484;2022-07-12T14:40:31;2.60;;;2.10;;
3843;SDS011;1937;51.444;6.484;2022-07-12T14:43:00;2.67;;;2.20;;
3843;SDS011;1937;51.444;6.484;2022-07-12T14:45:28;2.00;;;1.90;;
3843;SDS011;1937;51.444;6.484;2022-07-12T14:47:58;2.33;;;2.10;;
3843;SDS011;1937;51.444;6.484;2022-07-12T14:50:26;2.77;;;2.00;;
3843;SDS011;1937;51.444;6.484;2022-07-12T14:52:55;2.40;;;1.80;;
3843;SDS011;1937;51.444;6.484;2022-07-12T14:55:23;3.13;;;1.50;;
3843;SDS011;1937;51.444;6.484;2022-07-12T14:57:51;3.50;;;2.00;;
3843;SDS011;1937;51.444;6.484;2022-07-12T15:00:20;3.83;;;1.77;;
3843;SDS011;1937;51.444;6.484;2022-07-12T15:02:46;1.97;;;1.80;;
3843;SDS011;1937;51.444;6.484;2022-07-12T15:05:14;2.60;;;1.70;;
3843;SDS011;1937;51.444;6.484;2022-07-12T15:07:41;1.90;;;1.80;;
3843;SDS011;1937;51.444;6.484;2022-07-12T15:10:08;1.93;;;1.73;;
3843;SDS011;1937;51.444;6.484;2022-07-12T15:12:34;1.87;;;1.77;;
3843;SDS011;1937;51.444;6.484;2022-07-12T15:15:01;2.03;;;1.93;;
3843;SDS011;1937;51.444;6.484;2022-07-12T15:17:28;2.30;;;1.80;;
3843;SDS011;1937;51.444;6.484;2022-07-12T15:19:54;2.83;;;1.67;;
3843;SDS011;1937;51.444;6.484;2022-07-12T15:22:22;5.60;;;2.30;;
3843;SDS011;1937;51.444;6.484;2022-07-12T15:24:49;4.00;;;1.97;;
3843;SDS011;1937;51.444;6.484;2022-07-12T15:27:15;1.70;;;1.60;;
3843;SDS011;1937;51.444;6.484;2022-07-12T15:29:42;2.63;;;1.80;;
3843;SDS011;1937;51.444;6.484;2022-07-12T15:32:10;2.50;;;1.73;;
3843;SDS011;1937;51.444;6.484;2022-07-12T15:34:38;5.63;;;2.27;;
3843;SDS011;1937;51.444;6.484;2022-07-12T15:37:04;2.03;;;1.60;;
3843;SDS011;1937;51.444;6.484;2022-07-12T15:39:32;1.60;;;1.50;;